Time,TemperatureF,DewpointF,PressureIn,WindDirection,WindDirectionDegrees,WindSpeedMPH,WindSpeedGustMPH,Humidity,HourlyPrecipIn,Conditions,Clouds,dailyrainin,SoftwareType,DateUTC
2013-06-21 00:04:00,56.1,54.0,30.27,SSW,201,0.0,-999.0,92,-99.99,,,0.00,weatherlink.com 1.10,2013-06-21 04:04:00,
2013-06-21 00:19:00,56.0,54.0,30.27,SSW,201,0.0,-999.0,93,-99.99,,,0.00,weatherlink.com 1.10,2013-06-21 04:19:00,
2013-06-21 00:34:00,56.2,55.0,30.27,SSW,201,0.0,-999.0,94,-99.99,,,0.00,weatherlink.com 1.10,2013-06-21 04:34:00,
2013-06-21 00:49:00,56.9,55.0,30.26,SSE,148,0.0,-999.0,94,-99.99,,,0.00,weatherlink.com 1.10,2013-06-21 04:49:00,
2013-06-21 01:05:00,59.4,56.0,30.26,ENE,59,1.0,-999.0,89,-99.99,,,0.00,weatherlink.com 1.10,2013-06-21 05:05:00,
2013-06-21 01:20:00,61.1,57.0,30.26,East,89,1.0,-999.0,85,-99.99,,,0.00,weatherlink.com 1.10,2013-06-21 05:20:00,
2013-06-21 01:35:00,61.2,56.0,30.26,East,86,0.0,-999.0,84,-99.99,,,0.00,weatherlink.com 1.10,2013-06-21 05:35:00,
2013-06-21 01:50:00,61.1,56.0,30.26,East,82,0.0,-999.0,83,-99.99,,,0.00,weatherlink.com 1.10,2013-06-21 05:50:00,
2013-06-21 02:05:00,60.7,56.0,30.26,East,82,0.0,-999.0,84,-99.99,,,0.00,weatherlink.com 1.10,2013-06-21 06:05:00,
2013-06-21 02:20:00,59.8,55.0,30.25,East,82,0.0,-999.0,85,-99.99,,,0.00,weatherlink.com 1.10,2013-06-21 06:20:00,
2013-06-21 02:35:00,59.6,55.0,30.24,ESE,104,1.0,-999.0,85,-99.99,,,0.00,weatherlink.com 1.10,2013-06-21 06:35:00,
2013-06-21 02:50:00,59.0,55.0,30.25,ESE,104,0.0,-999.0,87,-99.99,,,0.00,weatherlink.com 1.10,2013-06-21 06:50:00,
2013-06-21 03:05:00,58.2,55.0,30.25,ESE,104,0.0,-999.0,88,-99.99,,,0.00,weatherlink.com 1.10,2013-06-21 07:05:00,
2013-06-21 03:20:00,57.3,54.0,30.24,ESE,104,0.0,-999.0,88,-99.99,,,0.00,weatherlink.com 1.10,2013-06-21 07:20:00,
2013-06-21 03:35:00,56.7,54.0,30.25,ESE,104,0.0,-999.0,90,-99.99,,,0.00,weatherlink.com 1.10,2013-06-21 07:35:00,
2013-06-21 03:50:00,56.5,54.0,30.25,ESE,104,0.0,-999.0,90,-99.99,,,0.00,weatherlink.com 1.10,2013-06-21 07:50:00,
2013-06-21 04:05:00,56.2,53.0,30.25,ESE,104,0.0,-999.0,90,-99.99,,,0.00,weatherlink.com 1.10,2013-06-21 08:05:00,
2013-06-21 04:20:00,55.9,53.0,30.24,ESE,104,0.0,-999.0,90,-99.99,,,0.00,weatherlink.com 1.10,2013-06-21 08:20:00,
2013-06-21 04:35:00,56.0,53.0,30.24,ESE,104,0.0,-999.0,90,-99.99,,,0.00,weatherlink.com 1.10,2013-06-21 08:35:00,
2013-06-21 04:50:00,56.0,54.0,30.25,ESE,104,0.0,-999.0,91,-99.99,,,0.00,weatherlink.com 1.10,2013-06-21 08:50:00,
2013-06-21 05:05:00,55.9,53.0,30.25,ESE,104,0.0,-999.0,90,-99.99,,,0.00,weatherlink.com 1.10,2013-06-21 09:05:00,
2013-06-21 05:20:00,55.5,53.0,30.26,ESE,104,0.0,-999.0,91,-99.99,,,0.00,weatherlink.com 1.10,2013-06-21 09:20:00,
2013-06-21 05:35:00,55.1,53.0,30.26,ESE,104,0.0,-999.0,92,-99.99,,,0.00,weatherlink.com 1.10,2013-06-21 09:35:00,
2013-06-21 05:50:00,55.5,53.0,30.26,East,97,0.0,-999.0,92,-99.99,,,0.00,weatherlink.com 1.10,2013-06-21 09:50:00,
2013-06-21 06:05:00,56.1,54.0,30.26,East,97,0.0,-999.0,92,-99.99,,,0.00,weatherlink.com 1.10,2013-06-21 10:05:00,
2013-06-21 06:20:00,56.4,54.0,30.27,East,97,0.0,-999.0,92,-99.99,,,0.00,weatherlink.com 1.10,2013-06-21 10:20:00,
2013-06-21 06:35:00,56.7,55.0,30.26,East,97,0.0,-999.0,92,-99.99,,,0.00,weatherlink.com 1.10,2013-06-21 10:35:00,
2013-06-21 06:50:00,57.5,55.0,30.27,East,92,0.0,-999.0,92,-99.99,,,0.00,weatherlink.com 1.10,2013-06-21 10:50:00,
2013-06-21 07:05:00,59.0,56.0,30.26,East,80,1.0,-999.0,90,-99.99,,,0.00,weatherlink.com 1.10,2013-06-21 11:05:00,
2013-06-21 07:20:00,60.6,57.0,30.26,East,80,0.0,-999.0,87,-99.99,,,0.00,weatherlink.com 1.10,2013-06-21 11:20:00,
2013-06-21 07:35:00,62.1,58.0,30.26,ENE,71,1.0,-999.0,85,-99.99,,,0.00,weatherlink.com 1.10,2013-06-21 11:35:00,
2013-06-21 07:50:00,63.5,58.0,30.25,ENE,76,0.0,-999.0,83,-99.99,,,0.00,weatherlink.com 1.10,2013-06-21 11:50:00,
2013-06-21 08:05:00,65.6,60.0,30.25,East,85,0.0,-999.0,81,-99.99,,,0.00,weatherlink.com 1.10,2013-06-21 12:05:00,
2013-06-21 08:20:00,67.5,60.0,30.26,ESE,122,0.0,-999.0,76,-99.99,,,0.00,weatherlink.com 1.10,2013-06-21 12:20:00,
2013-06-21 08:50:00,71.1,62.0,30.25,ENE,71,0.0,-999.0,74,-99.99,,,0.00,weatherlink.com 1.10,2013-06-21 12:50:00,
2013-06-21 09:05:00,72.7,63.0,30.25,North,355,1.0,-999.0,71,-99.99,,,0.00,weatherlink.com 1.10,2013-06-21 13:05:00,
2013-06-21 09:20:00,74.7,64.0,30.25,NE,44,0.0,-999.0,69,-99.99,,,0.00,weatherlink.com 1.10,2013-06-21 13:20:00,
2013-06-21 09:36:00,75.7,65.0,30.25,NNE,26,1.0,-999.0,69,-99.99,,,0.00,weatherlink.com 1.10,2013-06-21 13:36:00,
2013-06-21 09:51:00,77.1,64.0,30.26,NNE,26,0.0,-999.0,65,-99.99,,,0.00,weatherlink.com 1.10,2013-06-21 13:51:00,
2013-06-21 10:21:00,78.3,64.0,30.26,SW,231,0.0,-999.0,61,-99.99,,,0.00,weatherlink.com 1.10,2013-06-21 14:21:00,
2013-06-21 10:36:00,79.2,64.0,30.26,South,173,0.0,-999.0,60,-99.99,,,0.00,weatherlink.com 1.10,2013-06-21 14:36:00,
2013-06-21 10:51:00,80.6,64.0,30.26,SSE,166,0.0,-999.0,57,-99.99,,,0.00,weatherlink.com 1.10,2013-06-21 14:51:00,
2013-06-21 11:06:00,81.1,63.0,30.27,NE,48,0.0,-999.0,55,-99.99,,,0.00,weatherlink.com 1.10,2013-06-21 15:06:00,
2013-06-21 11:21:00,80.9,64.0,30.26,SE,137,0.0,-999.0,57,-99.99,,,0.00,weatherlink.com 1.10,2013-06-21 15:21:00,
2013-06-21 11:36:00,80.3,62.0,30.26,ESE,117,0.0,-999.0,53,-99.99,,,0.00,weatherlink.com 1.10,2013-06-21 15:36:00,
2013-06-21 11:51:00,80.4,60.0,30.27,ESE,104,2.0,-999.0,50,-99.99,,,0.00,weatherlink.com 1.10,2013-06-21 15:51:00,
2013-06-21 12:06:00,81.1,65.0,30.26,SE,127,0.0,-999.0,59,-99.99,,,0.00,weatherlink.com 1.10,2013-06-21 16:06:00,
2013-06-21 12:21:00,81.8,60.0,30.26,East,91,2.0,-999.0,48,-99.99,,,0.00,weatherlink.com 1.10,2013-06-21 16:21:00,
2013-06-21 12:36:00,81.7,62.0,30.26,NNW,328,0.0,-999.0,51,-99.99,,,0.00,weatherlink.com 1.10,2013-06-21 16:36:00,
2013-06-21 12:51:00,82.5,60.0,30.25,NE,39,0.0,-999.0,46,-99.99,,,0.00,weatherlink.com 1.10,2013-06-21 16:51:00,
2013-06-21 13:21:00,83.2,56.0,30.25,NW,323,0.0,-999.0,40,-99.99,,,0.00,weatherlink.com 1.10,2013-06-21 17:21:00,
2013-06-21 13:36:00,83.4,59.0,30.25,NE,56,0.0,-999.0,43,-99.99,,,0.00,weatherlink.com 1.10,2013-06-21 17:36:00,
2013-06-21 13:51:00,83.4,60.0,30.24,NE,37,1.0,-999.0,45,-99.99,,,0.00,weatherlink.com 1.10,2013-06-21 17:51:00,
2013-06-21 14:21:00,83.6,58.0,30.24,East,96,1.0,-999.0,42,-99.99,,,0.00,weatherlink.com 1.10,2013-06-21 18:21:00,
2013-06-21 14:36:00,82.2,60.0,30.23,East,83,1.0,-999.0,47,-99.99,,,0.00,weatherlink.com 1.10,2013-06-21 18:36:00,
2013-06-21 14:51:00,83.3,59.0,30.23,SSE,153,0.0,-999.0,44,-99.99,,,0.00,weatherlink.com 1.10,2013-06-21 18:51:00,
2013-06-21 15:06:00,84.0,58.0,30.23,SE,124,0.0,-999.0,42,-99.99,,,0.00,weatherlink.com 1.10,2013-06-21 19:06:00,
2013-06-21 15:21:00,84.9,61.0,30.24,ESE,115,0.0,-999.0,44,-99.99,,,0.00,weatherlink.com 1.10,2013-06-21 19:21:00,
2013-06-21 15:36:00,84.8,62.0,30.23,ESE,115,0.0,-999.0,46,-99.99,,,0.00,weatherlink.com 1.10,2013-06-21 19:36:00,
2013-06-21 15:51:00,84.9,59.0,30.23,ESE,115,0.0,-999.0,41,-99.99,,,0.00,weatherlink.com 1.10,2013-06-21 19:51:00,
2013-06-21 16:06:00,84.4,58.0,30.23,West,264,0.0,-999.0,41,-99.99,,,0.00,weatherlink.com 1.10,2013-06-21 20:06:00,
2013-06-21 16:21:00,84.6,58.0,30.23,NNE,28,0.0,-999.0,40,-99.99,,,0.00,weatherlink.com 1.10,2013-06-21 20:21:00,
2013-06-21 16:36:00,83.8,54.0,30.22,NE,44,0.0,-999.0,36,-99.99,,,0.00,weatherlink.com 1.10,2013-06-21 20:36:00,
2013-06-21 16:51:00,82.7,62.0,30.22,SSE,165,0.0,-999.0,49,-99.99,,,0.00,weatherlink.com 1.10,2013-06-21 20:51:00,
2013-06-21 17:06:00,81.2,55.0,30.21,SE,143,2.0,-999.0,40,-99.99,,,0.00,weatherlink.com 1.10,2013-06-21 21:06:00,
2013-06-21 17:21:00,80.5,58.0,30.21,ESE,117,0.0,-999.0,46,-99.99,,,0.00,weatherlink.com 1.10,2013-06-21 21:21:00,
2013-06-21 17:36:00,80.0,61.0,30.21,East,92,0.0,-999.0,52,-99.99,,,0.00,weatherlink.com 1.10,2013-06-21 21:36:00,
2013-06-21 17:51:00,79.2,57.0,30.21,East,92,0.0,-999.0,47,-99.99,,,0.00,weatherlink.com 1.10,2013-06-21 21:51:00,
2013-06-21 18:07:00,78.1,61.0,30.21,East,92,0.0,-999.0,56,-99.99,,,0.00,weatherlink.com 1.10,2013-06-21 22:07:00,
2013-06-21 18:21:00,77.0,60.0,30.22,East,92,0.0,-999.0,55,-99.99,,,0.00,weatherlink.com 1.10,2013-06-21 22:21:00,
2013-06-21 18:36:00,76.1,61.0,30.22,East,92,0.0,-999.0,60,-99.99,,,0.00,weatherlink.com 1.10,2013-06-21 22:36:00,
2013-06-21 18:51:00,75.4,61.0,30.22,East,92,0.0,-999.0,61,-99.99,,,0.00,weatherlink.com 1.10,2013-06-21 22:51:00,
2013-06-21 19:06:00,74.6,61.0,30.23,East,92,0.0,-999.0,63,-99.99,,,0.00,weatherlink.com 1.10,2013-06-21 23:06:00,
2013-06-21 19:22:00,73.6,62.0,30.23,East,92,0.0,-999.0,67,-99.99,,,0.00,weatherlink.com 1.10,2013-06-21 23:22:00,
2013-06-21 19:37:00,72.7,61.0,30.23,East,92,0.0,-999.0,67,-99.99,,,0.00,weatherlink.com 1.10,2013-06-21 23:37:00,
2013-06-21 19:52:00,71.7,61.0,30.23,East,92,0.0,-999.0,70,-99.99,,,0.00,weatherlink.com 1.10,2013-06-21 23:52:00,
2013-06-21 20:07:00,70.4,61.0,30.23,East,92,0.0,-999.0,73,-99.99,,,0.00,weatherlink.com 1.10,2013-06-22 00:07:00,
2013-06-21 20:22:00,69.1,61.0,30.23,East,92,0.0,-999.0,75,-99.99,,,0.00,weatherlink.com 1.10,2013-06-22 00:22:00,
2013-06-21 20:37:00,67.6,60.0,30.23,East,92,0.0,-999.0,77,-99.99,,,0.00,weatherlink.com 1.10,2013-06-22 00:37:00,
2013-06-21 20:52:00,66.3,60.0,30.23,East,92,0.0,-999.0,79,-99.99,,,0.00,weatherlink.com 1.10,2013-06-22 00:52:00,
2013-06-21 21:07:00,65.0,59.0,30.23,East,92,0.0,-999.0,80,-99.99,,,0.00,weatherlink.com 1.10,2013-06-22 01:07:00,
2013-06-21 21:22:00,63.9,58.0,30.24,East,92,0.0,-999.0,81,-99.99,,,0.00,weatherlink.com 1.10,2013-06-22 01:22:00,
2013-06-21 21:37:00,63.1,58.0,30.24,East,92,0.0,-999.0,84,-99.99,,,0.00,weatherlink.com 1.10,2013-06-22 01:37:00,
2013-06-21 21:52:00,62.4,58.0,30.24,East,92,0.0,-999.0,86,-99.99,,,0.00,weatherlink.com 1.10,2013-06-22 01:52:00,
2013-06-21 22:07:00,61.8,58.0,30.24,East,92,0.0,-999.0,88,-99.99,,,0.00,weatherlink.com 1.10,2013-06-22 02:07:00,
2013-06-21 22:22:00,61.4,58.0,30.24,East,92,0.0,-999.0,89,-99.99,,,0.00,weatherlink.com 1.10,2013-06-22 02:22:00,
2013-06-21 22:37:00,61.0,58.0,30.24,East,92,0.0,-999.0,90,-99.99,,,0.00,weatherlink.com 1.10,2013-06-22 02:37:00,
2013-06-21 22:52:00,60.6,58.0,30.24,East,92,0.0,-999.0,90,-99.99,,,0.00,weatherlink.com 1.10,2013-06-22 02:52:00,
2013-06-21 23:07:00,60.2,58.0,30.23,East,92,0.0,-999.0,91,-99.99,,,0.00,weatherlink.com 1.10,2013-06-22 03:07:00,
2013-06-21 23:22:00,59.8,58.0,30.24,East,92,0.0,-999.0,92,-99.99,,,0.00,weatherlink.com 1.10,2013-06-22 03:22:00,
2013-06-21 23:37:00,59.9,58.0,30.24,East,92,0.0,-999.0,93,-99.99,,,0.00,weatherlink.com 1.10,2013-06-22 03:37:00,
2013-06-21 23:52:00,59.8,58.0,30.24,East,92,0.0,-999.0,94,-99.99,,,0.00,weatherlink.com 1.10,2013-06-22 03:52:00,